Time;durP1;ratioP1;P1;durP2;ratioP2;P2;SDS_P1;SDS_P2;PMS_P1;PMS_P2;Temp;Humidity;BMP_temperature;BMP_pressure;BME280_temperature;BME280_humidity;BME280_pressure;Samples;Min_cycle;Max_cycle;Signal;HPM_P1;HPM_P2
2022/07/10 04:02:27;;;;;;;11.50;1.45;;;13.90;99.90;;;;;;6297261;22;20019;-82
2022/07/10 04:04:53;;;;;;;11.85;2.20;;;13.90;99.90;;;;;;6258145;22;20004;-89
2022/07/10 04:07:18;;;;;;;9.93;1.35;;;14.00;99.90;;;;;;6258900;22;20332;-90
2022/07/10 04:09:44;;;;;;;7.32;1.58;;;13.90;99.90;;;;;;6310808;22;20015;-85
2022/07/10 04:12:10;;;;;;;8.07;1.40;;;14.00;99.90;;;;;;6258818;22;20350;-86
2022/07/10 04:14:36;;;;;;;17.02;2.33;;;14.00;99.90;;;;;;6254241;22;20405;-90
2022/07/10 04:17:02;;;;;;;11.77;1.60;;;14.10;99.90;;;;;;6253236;22;20098;-86
2022/07/10 04:19:27;;;;;;;11.20;1.95;;;14.10;99.90;;;;;;6253060;22;20051;-87
2022/07/10 04:21:53;;;;;;;10.15;1.95;;;14.10;99.90;;;;;;6253032;22;20008;-87
2022/07/10 04:24:19;;;;;;;15.45;2.03;;;14.10;99.90;;;;;;6252679;22;19992;-87
2022/07/10 04:26:44;;;;;;;8.02;1.33;;;14.10;99.90;;;;;;6252898;22;20015;-88
2022/07/10 04:29:10;;;;;;;8.52;1.83;;;14.10;99.90;;;;;;6253059;22;20019;-87
2022/07/10 04:31:36;;;;;;;13.55;1.90;;;14.20;99.90;;;;;;6279534;22;20433;-85
2022/07/10 04:34:02;;;;;;;13.65;2.50;;;14.20;99.90;;;;;;6252751;22;20015;-86
2022/07/10 04:36:28;;;;;;;8.43;1.75;;;14.20;99.90;;;;;;6227358;22;20095;-85
2022/07/10 04:38:53;;;;;;;10.60;2.00;;;14.20;99.90;;;;;;6279436;22;20019;-87
2022/07/10 04:41:19;;;;;;;12.73;2.50;;;14.20;99.90;;;;;;6226940;22;20062;-87
2022/07/10 04:43:45;;;;;;;9.98;2.60;;;14.20;99.90;;;;;;6252002;22;20085;-85
2022/07/10 04:46:10;;;;;;;13.10;2.22;;;14.20;99.90;;;;;;6251804;22;20012;-83
2022/07/10 04:48:36;;;;;;;8.70;2.40;;;14.20;99.90;;;;;;6252555;22;20046;-88
2022/07/10 04:51:02;;;;;;;11.65;2.78;;;14.10;99.90;;;;;;6252785;22;20103;-85
2022/07/10 04:53:28;;;;;;;9.80;2.55;;;14.10;99.90;;;;;;6227038;22;20026;-83
2022/07/10 04:55:53;;;;;;;14.02;2.60;;;14.10;99.90;;;;;;6252569;22;20508;-86
2022/07/10 04:58:19;;;;;;;10.13;2.50;;;14.00;99.90;;;;;;6252720;22;20023;-87
2022/07/10 05:00:44;;;;;;;8.13;2.35;;;14.10;99.90;;;;;;6279835;22;20012;-86
2022/07/10 05:03:10;;;;;;;9.80;2.45;;;14.10;99.90;;;;;;6280334;22;20008;-86
2022/07/10 05:05:35;;;;;;;11.18;2.63;;;14.10;99.90;;;;;;6252541;22;20337;-87
2022/07/10 05:08:01;;;;;;;9.00;2.47;;;14.10;99.90;;;;;;6280262;22;20008;-86
2022/07/10 05:10:27;;;;;;;8.88;2.70;;;14.10;99.90;;;;;;6285003;22;20054;-87
2022/07/10 05:12:52;;;;;;;9.18;2.60;;;14.20;99.90;;;;;;6291538;22;20019;-85
2022/07/10 05:15:18;;;;;;;10.25;2.40;;;14.20;99.90;;;;;;6291859;22;20019;-84
2022/07/10 05:17:44;;;;;;;11.88;2.25;;;14.20;99.90;;;;;;6273522;22;20032;-85
2022/07/10 05:20:10;;;;;;;11.20;2.72;;;14.20;99.90;;;;;;6277574;22;20019;-86
2022/07/10 05:22:36;;;;;;;8.18;2.30;;;14.20;99.90;;;;;;6284805;22;20020;-84
2022/07/10 05:25:02;;;;;;;11.75;3.38;;;14.20;99.90;;;;;;6281964;22;20038;-85
2022/07/10 05:27:27;;;;;;;9.05;2.50;;;14.20;99.90;;;;;;6254014;22;20079;-86
2022/07/10 05:29:53;;;;;;;13.02;2.90;;;14.20;99.90;;;;;;6253429;22;20329;-83
2022/07/10 05:32:19;;;;;;;13.52;3.15;;;14.20;99.90;;;;;;6253265;22;20008;-87
2022/07/10 05:34:44;;;;;;;12.88;2.92;;;14.20;99.90;;;;;;6229658;22;20007;-85
2022/07/10 05:37:10;;;;;;;13.40;2.63;;;14.20;99.90;;;;;;6254256;22;20065;-87
2022/07/10 05:39:36;;;;;;;9.80;2.70;;;14.30;99.90;;;;;;6255163;22;20047;-85
2022/07/10 05:42:02;;;;;;;12.25;2.65;;;14.40;99.90;;;;;;6281959;22;20016;-87
2022/07/10 05:44:27;;;;;;;11.68;2.50;;;14.40;99.90;;;;;;6230058;22;20011;-89
2022/07/10 05:46:53;;;;;;;11.98;2.58;;;14.40;99.90;;;;;;6255291;22;20038;-86
2022/07/10 05:49:19;;;;;;;10.98;3.13;;;14.50;99.90;;;;;;6282143;22;20053;-87
2022/07/10 05:51:44;;;;;;;17.27;2.85;;;14.50;99.90;;;;;;6254611;22;20023;-86
2022/07/10 05:54:10;;;;;;;10.80;2.70;;;14.50;99.90;;;;;;6229881;22;20455;-87
2022/07/10 05:56:35;;;;;;;13.73;2.90;;;14.50;99.90;;;;;;6254953;22;20015;-87
2022/07/10 05:59:01;;;;;;;12.82;2.40;;;14.60;99.90;;;;;;6280825;22;20448;-86
2022/07/10 06:01:27;;;;;;;14.50;2.50;;;14.60;99.90;;;;;;6253714;22;20046;-85
2022/07/10 06:03:53;;;;;;;11.30;2.17;;;14.70;99.90;;;;;;6229596;22;20073;-87
2022/07/10 06:06:18;;;;;;;13.95;2.85;;;14.70;99.90;;;;;;6254814;22;20035;-87
2022/07/10 06:08:45;;;;;;;8.95;2.58;;;14.70;99.90;;;;;;6230450;22;20019;-89
2022/07/10 06:11:11;;;;;;;13.43;2.45;;;14.70;99.90;;;;;;6255597;22;20011;-87
2022/07/10 06:13:38;;;;;;;12.88;3.03;;;14.60;99.90;;;;;;6255099;22;20011;-83
2022/07/10 06:16:04;;;;;;;7.82;2.53;;;14.50;99.90;;;;;;6254981;22;20062;-86
2022/07/10 06:18:31;;;;;;;15.85;3.10;;;14.50;99.90;;;;;;6255029;22;20093;-87
2022/07/10 06:20:56;;;;;;;12.43;3.60;;;14.50;99.90;;;;;;6254094;22;20134;-86
2022/07/10 06:23:22;;;;;;;9.40;3.40;;;14.50;99.90;;;;;;6281232;22;20019;-84
2022/07/10 06:25:50;;;;;;;12.23;3.05;;;14.50;99.90;;;;;;6253116;22;20019;-87
2022/07/10 06:28:17;;;;;;;12.18;2.67;;;14.50;99.90;;;;;;6228646;22;20096;-86
2022/07/10 06:30:44;;;;;;;11.00;2.78;;;14.50;99.90;;;;;;6228488;22;20433;-87
2022/07/10 06:33:10;;;;;;;8.93;2.70;;;14.50;99.90;;;;;;6254509;22;20452;-87
2022/07/10 06:35:35;;;;;;;8.32;3.00;;;14.50;99.90;;;;;;6282309;22;20012;-85
2022/07/10 06:38:02;;;;;;;11.05;2.65;;;14.60;99.90;;;;;;6229611;22;20011;-85
2022/07/10 06:40:29;;;;;;;10.75;2.65;;;14.60;99.90;;;;;;6255405;22;20038;-90
2022/07/10 06:42:54;;;;;;;11.73;3.38;;;14.70;99.90;;;;;;6254876;22;20026;-87
2022/07/10 06:45:20;;;;;;;10.13;3.03;;;14.70;99.90;;;;;;6229345;22;20058;-87
2022/07/10 06:48:01;;;;;;;14.20;2.70;;;14.70;99.90;;;;;;6229887;22;20045;-85
2022/07/10 06:50:33;;;;;;;10.43;3.22;;;14.70;99.90;;;;;;6281905;22;20366;-89
2022/07/10 06:53:00;;;;;;;9.88;2.63;;;14.80;99.90;;;;;;6254422;22;20012;-89
2022/07/10 06:55:26;;;;;;;12.98;2.70;;;14.80;99.90;;;;;;6281797;22;20043;-88
2022/07/10 06:57:53;;;;;;;9.60;2.80;;;14.80;99.90;;;;;;6255090;22;20078;-90
2022/07/10 07:00:19;;;;;;;10.15;2.65;;;14.80;99.90;;;;;;6255901;22;20012;-89
2022/07/10 07:02:44;;;;;;;8.23;2.67;;;14.90;99.90;;;;;;6255030;22;20023;-89
2022/07/10 07:05:11;;;;;;;8.93;2.80;;;14.90;99.90;;;;;;6255174;22;20003;-84
2022/07/10 07:07:37;;;;;;;10.77;2.58;;;15.00;99.90;;;;;;6254526;22;20046;-85
2022/07/10 07:10:04;;;;;;;8.57;2.25;;;15.00;99.90;;;;;;6230520;22;20015;-88
2022/07/10 07:12:30;;;;;;;10.43;2.40;;;15.10;99.90;;;;;;6255787;22;20012;-91
2022/07/10 07:14:56;;;;;;;8.75;2.20;;;15.10;99.90;;;;;;6229483;22;20045;-88
2022/07/10 07:17:22;;;;;;;7.18;2.10;;;15.10;99.90;;;;;;6255715;22;20437;-92
2022/07/10 07:25:17;;;;;;;8.00;2.00;;;15.10;99.90;;;;;;6281553;22;20023;-84
2022/07/10 07:27:42;;;;;;;7.50;2.63;;;15.10;99.90;;;;;;6254582;22;20011;-88
2022/07/10 07:30:16;;;;;;;8.50;2.50;;;15.00;99.90;;;;;;6229106;22;20011;-83
2022/07/10 07:32:44;;;;;;;9.48;2.60;;;15.00;99.90;;;;;;6229445;22;20087;-85
2022/07/10 07:35:11;;;;;;;6.28;2.08;;;15.00;99.90;;;;;;6254604;22;20011;-87
2022/07/10 07:37:37;;;;;;;8.93;2.40;;;15.00;99.90;;;;;;6282471;22;20069;-90
2022/07/10 07:40:04;;;;;;;8.32;2.50;;;14.90;99.90;;;;;;6253612;22;20012;-90
2022/07/10 07:42:30;;;;;;;7.53;2.60;;;14.90;99.90;;;;;;6280865;22;20012;-88
2022/07/10 07:44:56;;;;;;;7.72;2.30;;;14.90;99.90;;;;;;6254919;22;20035;-90
2022/07/10 07:47:21;;;;;;;4.05;1.75;;;14.80;99.90;;;;;;6252967;22;20090;-89
2022/07/10 07:49:47;;;;;;;7.55;2.22;;;14.80;99.90;;;;;;6253314;22;20090;-87
2022/07/10 07:52:13;;;;;;;6.88;1.92;;;14.80;99.90;;;;;;6251865;22;20015;-89
2022/07/10 07:54:39;;;;;;;9.43;2.30;;;14.80;99.90;;;;;;6280466;22;20066;-86
2022/07/10 07:57:05;;;;;;;8.07;2.47;;;14.80;99.90;;;;;;6253308;22;20444;-91
2022/07/10 07:59:31;;;;;;;9.63;2.53;;;14.80;99.90;;;;;;6253620;22;20012;-90
2022/07/10 08:01:57;;;;;;;6.70;2.10;;;14.80;99.90;;;;;;6228348;22;20016;-90
2022/07/10 08:04:22;;;;;;;10.05;2.45;;;14.80;99.90;;;;;;6228214;22;20014;-92
2022/07/10 08:06:51;;;;;;;6.82;2.67;;;14.80;99.90;;;;;;6253557;22;20048;-86
2022/07/10 08:09:18;;;;;;;6.82;2.17;;;14.90;99.90;;;;;;6253568;22;20015;-87
2022/07/10 08:11:44;;;;;;;8.95;2.17;;;14.90;99.90;;;;;;6253337;22;20026;-89
2022/07/10 08:14:09;;;;;;;8.15;2.50;;;14.90;99.90;;;;;;6227406;22;20340;-86
2022/07/10 08:16:35;;;;;;;6.28;2.08;;;14.90;99.90;;;;;;6228971;22;20039;-94
2022/07/10 08:19:01;;;;;;;11.80;3.00;;;14.80;99.90;;;;;;6253450;22;20016;-89
2022/07/10 08:21:26;;;;;;;9.57;2.70;;;14.80;99.90;;;;;;6228182;22;20062;-89
2022/07/10 08:23:53;;;;;;;9.18;2.72;;;14.80;99.90;;;;;;6229186;22;20046;-92
2022/07/10 08:26:19;;;;;;;9.02;2.50;;;14.80;99.90;;;;;;6282098;22;20015;-89
2022/07/10 08:28:45;;;;;;;6.47;2.50;;;14.80;99.90;;;;;;6282130;22;20043;-90
2022/07/10 08:31:12;;;;;;;8.68;2.60;;;14.80;99.90;;;;;;6281732;22;20023;-92
2022/07/10 08:33:37;;;;;;;7.70;2.13;;;14.80;99.90;;;;;;6282070;22;20070;-93
2022/07/10 08:36:04;;;;;;;6.10;2.40;;;14.80;99.90;;;;;;6254039;22;20345;-87
2022/07/10 08:38:30;;;;;;;8.20;2.63;;;14.80;99.90;;;;;;6227397;22;20051;-87
2022/07/10 08:40:57;;;;;;;10.45;2.60;;;14.70;99.90;;;;;;6253414;22;20008;-88
2022/07/10 08:43:26;;;;;;;7.10;3.03;;;14.80;99.90;;;;;;6228742;22;20023;-89
2022/07/10 08:45:55;;;;;;;6.93;2.15;;;14.80;99.90;;;;;;6229254;22;20043;-92
2022/07/10 08:48:24;;;;;;;10.13;3.22;;;14.90;99.90;;;;;;6255477;22;20014;-91
2022/07/10 08:50:54;;;;;;;8.50;3.70;;;14.90;99.90;;;;;;6228346;22;20023;-89
2022/07/10 08:53:23;;;;;;;9.63;3.17;;;15.00;99.90;;;;;;6254452;22;20058;-90
2022/07/10 08:55:48;;;;;;;8.27;3.05;;;15.10;99.90;;;;;;6229396;22;20016;-91
2022/07/10 08:58:14;;;;;;;9.10;2.72;;;15.20;99.90;;;;;;6252948;22;20018;-89
2022/07/10 09:00:40;;;;;;;8.90;2.38;;;15.30;99.90;;;;;;6227543;22;20014;-90
2022/07/10 09:03:07;;;;;;;7.22;2.22;;;15.50;99.90;;;;;;6229079;22;20086;-90
2022/07/10 09:05:33;;;;;;;7.95;2.47;;;15.60;99.90;;;;;;6228483;22;20011;-89
2022/07/10 09:07:59;;;;;;;8.48;2.15;;;15.60;99.90;;;;;;6253934;22;20027;-84
2022/07/10 09:10:26;;;;;;;9.35;2.25;;;15.60;99.90;;;;;;6254539;22;20023;-88
2022/07/10 09:12:57;;;;;;;9.73;2.50;;;15.70;99.90;;;;;;6230526;22;20015;-88
2022/07/10 09:15:25;;;;;;;6.80;2.40;;;15.70;99.90;;;;;;6255151;22;20020;-88
2022/07/10 09:17:56;;;;;;;8.52;2.40;;;15.60;99.90;;;;;;6229287;22;20023;-89
2022/07/10 09:20:40;;;;;;;11.07;3.22;;;15.60;99.90;;;;;;6255171;22;20028;-89
2022/07/10 09:23:21;;;;;;;6.70;2.63;;;15.50;99.90;;;;;;6231169;22;20513;-90
2022/07/10 09:25:49;;;;;;;7.05;2.20;;;15.40;99.90;;;;;;6255548;22;20016;-89
2022/07/10 09:28:20;;;;;;;7.05;2.20;;;15.30;99.90;;;;;;6256686;22;20019;-89
2022/07/10 09:30:47;;;;;;;8.98;2.22;;;15.40;99.90;;;;;;6256640;22;20011;-89
2022/07/10 09:33:25;;;;;;;6.47;2.45;;;15.40;99.90;;;;;;6229743;22;20012;-90
2022/07/10 09:36:18;;;;;;;11.90;2.83;;;15.60;99.90;;;;;;6230424;22;20020;-90
2022/07/10 09:38:44;;;;;;;9.88;2.15;;;15.70;99.90;;;;;;6283194;22;20078;-88
2022/07/10 09:41:11;;;;;;;8.27;2.25;;;16.00;99.90;;;;;;6284121;22;20494;-91
2022/07/10 09:43:47;;;;;;;8.38;2.50;;;16.10;99.90;;;;;;6256418;22;20445;-90
2022/07/10 09:46:14;;;;;;;6.03;2.00;;;16.20;99.90;;;;;;6230247;22;20012;-92
2022/07/10 09:48:40;;;;;;;5.38;1.80;;;16.30;99.90;;;;;;6282555;22;20416;-90
2022/07/10 09:51:10;;;;;;;7.60;2.00;;;16.30;99.90;;;;;;6255680;22;20024;-89
2022/07/10 09:53:42;;;;;;;7.03;1.65;;;16.40;99.90;;;;;;6230133;22;20072;-90
2022/07/10 09:56:11;;;;;;;7.45;2.30;;;16.30;99.90;;;;;;6255680;22;20019;-89
2022/07/10 09:58:38;;;;;;;10.35;2.10;;;16.20;99.90;;;;;;6256266;22;20019;-88
2022/07/10 10:01:05;;;;;;;6.68;1.90;;;16.30;99.90;;;;;;6281761;22;20157;-87
2022/07/10 10:03:36;;;;;;;4.25;1.60;;;16.20;99.90;;;;;;6253880;22;20018;-87
2022/07/10 10:06:03;;;;;;;5.53;1.95;;;16.20;99.90;;;;;;6227671;22;20008;-87
2022/07/10 10:08:51;;;;;;;7.75;1.90;;;16.20;99.90;;;;;;6228657;22;20069;-88
2022/07/10 10:11:21;;;;;;;4.10;2.30;;;16.30;99.90;;;;;;6253337;22;20011;-87
2022/07/10 10:13:49;;;;;;;11.88;3.13;;;16.30;99.90;;;;;;6228477;22;20018;-86
2022/07/10 10:16:15;;;;;;;12.15;2.40;;;16.50;99.90;;;;;;6254046;22;20074;-86
2022/07/10 10:21:28;;;;;;;11.23;2.83;;;16.60;99.90;;;;;;6253931;22;20387;-89
2022/07/10 10:23:55;;;;;;;10.10;2.53;;;16.70;99.90;;;;;;6281386;22;20061;-88
2022/07/10 10:26:22;;;;;;;7.13;2.00;;;16.90;99.90;;;;;;6254228;22;20019;-89
2022/07/10 10:28:51;;;;;;;8.20;2.28;;;17.00;99.90;;;;;;6281969;22;20033;-91
2022/07/10 10:31:18;;;;;;;6.68;2.35;;;17.00;99.90;;;;;;6229478;22;20107;-90
2022/07/10 10:33:45;;;;;;;8.82;2.60;;;17.00;99.90;;;;;;6229564;22;20071;-88
2022/07/10 10:36:37;;;;;;;8.52;2.33;;;17.00;99.90;;;;;;6231013;22;20016;-90
2022/07/10 10:39:33;;;;;;;5.35;2.20;;;17.00;99.90;;;;;;6253439;22;20081;-87
2022/07/10 10:41:59;;;;;;;7.25;2.30;;;16.90;99.90;;;;;;6233754;22;20016;-86
2022/07/10 10:44:28;;;;;;;7.75;2.15;;;16.80;99.90;;;;;;6261004;22;20015;-84
2022/07/10 10:47:02;;;;;;;7.95;1.80;;;16.80;99.90;;;;;;6257627;22;20507;-85
2022/07/10 10:49:51;;;;;;;6.38;1.90;;;16.90;99.90;;;;;;6274373;22;20034;-83
2022/07/10 10:52:17;;;;;;;8.30;3.20;;;17.00;99.90;;;;;;6273178;22;20019;-85
2022/07/10 10:55:03;;;;;;;7.32;1.70;;;17.10;99.90;;;;;;6254197;22;20170;-84
2022/07/10 10:57:32;;;;;;;6.47;1.45;;;17.10;99.90;;;;;;6254162;22;20012;-83
2022/07/10 11:00:06;;;;;;;5.68;1.52;;;17.10;99.90;;;;;;6253045;22;20026;-87
2022/07/10 11:02:33;;;;;;;8.15;1.50;;;17.10;99.90;;;;;;6252620;22;20511;-85
2022/07/10 11:05:14;;;;;;;4.88;1.55;;;17.10;99.90;;;;;;6227698;22;20015;-85
2022/07/10 11:07:58;;;;;;;9.90;2.40;;;17.00;99.90;;;;;;6253673;22;20062;-87
2022/07/10 11:10:44;;;;;;;5.60;2.20;;;16.80;99.90;;;;;;6227117;22;20091;-86
2022/07/10 11:13:14;;;;;;;5.75;2.15;;;16.60;99.90;;;;;;6252595;22;20345;-86
2022/07/10 11:15:46;;;;;;;9.45;2.40;;;16.50;99.90;;;;;;6253179;22;20015;-84
2022/07/10 11:18:12;;;;;;;6.45;1.98;;;16.40;99.90;;;;;;6227138;22;20015;-86
2022/07/10 11:20:39;;;;;;;6.18;1.90;;;16.40;99.90;;;;;;6252058;22;20035;-86
2022/07/10 11:23:32;;;;;;;8.70;2.50;;;16.20;99.90;;;;;;6227148;22;20030;-88
2022/07/10 11:26:12;;;;;;;7.50;2.22;;;16.10;99.90;;;;;;6253034;22;20085;-88
2022/07/10 11:28:43;;;;;;;4.97;2.53;;;16.10;99.90;;;;;;6252537;22;20011;-85
2022/07/10 11:31:09;;;;;;;9.75;2.55;;;16.20;99.90;;;;;;6279274;22;20071;-86
2022/07/10 11:33:43;;;;;;;7.72;2.50;;;16.30;99.90;;;;;;6279709;22;20018;-83
2022/07/10 11:36:13;;;;;;;8.25;2.95;;;16.40;99.90;;;;;;6226994;22;20061;-86
2022/07/10 11:38:41;;;;;;;7.72;2.83;;;16.50;99.90;;;;;;6227228;22;20016;-87
2022/07/10 11:41:15;;;;;;;4.32;1.90;;;16.60;99.90;;;;;;6228080;22;20500;-87
2022/07/10 11:44:01;;;;;;;5.63;1.80;;;16.70;99.90;;;;;;6253021;22;20433;-86
2022/07/10 11:46:33;;;;;;;8.13;2.50;;;16.70;99.90;;;;;;6279277;22;20004;-85
2022/07/10 11:48:59;;;;;;;13.10;2.63;;;16.80;99.90;;;;;;6226309;22;20007;-86
2022/07/10 11:51:34;;;;;;;7.55;1.90;;;16.80;99.90;;;;;;6226643;22;20046;-84
2022/07/10 11:54:03;;;;;;;;;;;16.90;99.90;;;;;;6253977;22;20008;-88
2022/07/10 11:56:36;;;;;;;5.00;1.60;;;17.00;99.90;;;;;;6280506;22;19911;-85
2022/07/10 11:59:10;;;;;;;5.70;1.75;;;17.10;99.90;;;;;;6252977;22;20007;-84
2022/07/10 12:01:42;;;;;;;6.57;1.65;;;17.10;99.90;;;;;;6227496;22;20047;-88
2022/07/10 12:04:09;;;;;;;6.07;1.65;;;17.20;99.90;;;;;;6252486;22;20019;-85
2022/07/10 12:06:37;;;;;;;4.70;1.48;;;17.20;99.90;;;;;;6227264;22;20011;-83
2022/07/10 12:09:04;;;;;;;5.93;1.48;;;17.20;99.90;;;;;;6251789;22;20010;-85
2022/07/10 12:11:30;;;;;;;5.22;1.58;;;17.20;99.90;;;;;;6251096;22;20434;-85
2022/07/10 12:14:11;;;;;;;4.45;1.48;;;17.30;99.90;;;;;;6251392;22;20011;-84
2022/07/10 12:16:37;;;;;;;5.28;1.73;;;17.40;99.90;;;;;;6251933;22;20019;-82
2022/07/10 12:19:04;;;;;;;7.68;1.60;;;17.40;99.90;;;;;;6251526;22;20022;-83
2022/07/10 12:21:29;;;;;;;4.85;1.55;;;17.40;99.90;;;;;;6226069;22;20027;-83
2022/07/10 12:23:56;;;;;;;4.90;1.30;;;17.50;99.90;;;;;;6226216;22;20392;-85
2022/07/10 12:26:22;;;;;;;5.32;1.48;;;17.60;99.90;;;;;;6251438;22;20003;-85
2022/07/10 12:28:52;;;;;;;4.45;1.35;;;17.60;99.90;;;;;;6250984;22;20389;-85
2022/07/10 12:31:27;;;;;;;3.92;1.52;;;17.50;99.90;;;;;;6226551;22;20449;-84
2022/07/10 12:33:57;;;;;;;4.25;1.10;;;17.60;99.90;;;;;;6251743;22;20437;-85
2022/07/10 12:36:24;;;;;;;4.22;1.38;;;17.60;99.90;;;;;;6252788;22;20053;-84
2022/07/10 12:38:55;;;;;;;7.53;1.83;;;17.60;99.90;;;;;;6251095;22;20019;-83
2022/07/10 12:41:24;;;;;;;6.47;1.40;;;17.70;99.90;;;;;;6251352;22;20491;-85
2022/07/10 12:43:51;;;;;;;6.22;1.30;;;17.80;99.90;;;;;;6229246;22;20319;-85
2022/07/10 12:46:19;;;;;;;4.25;1.33;;;17.90;99.90;;;;;;6254545;22;20425;-84
2022/07/10 12:49:09;;;;;;;3.95;1.10;;;18.10;99.90;;;;;;6229537;22;20012;-84
2022/07/10 12:51:47;;;;;;;4.43;1.10;;;18.20;99.90;;;;;;6254524;22;20007;-84
2022/07/10 12:54:38;;;;;;;3.67;1.30;;;18.30;99.90;;;;;;6254369;22;20341;-84
2022/07/10 12:57:07;;;;;;;5.07;1.10;;;18.30;99.90;;;;;;6281203;22;20023;-83
2022/07/10 12:59:35;;;;;;;6.20;1.30;;;18.30;99.90;;;;;;6254214;22;20012;-84
2022/07/10 13:02:20;;;;;;;3.20;1.23;;;18.20;99.90;;;;;;6254263;22;20096;-84
2022/07/10 13:04:57;;;;;;;5.85;1.30;;;18.20;99.90;;;;;;6228933;22;20047;-85
2022/07/10 13:07:30;;;;;;;4.20;1.45;;;18.20;99.90;;;;;;6281108;22;20376;-83
2022/07/10 13:09:58;;;;;;;5.35;1.15;;;18.10;99.90;;;;;;6254127;22;20046;-85
2022/07/10 13:12:23;;;;;;;6.20;1.17;;;18.10;99.90;;;;;;6281813;22;20067;-84
2022/07/10 13:14:49;;;;;;;4.68;1.55;;;18.20;99.90;;;;;;6254312;22;20348;-83
2022/07/10 13:17:14;;;;;;;9.20;2.00;;;18.30;99.90;;;;;;6254226;22;20536;-84
2022/07/10 13:19:40;;;;;;;5.30;1.30;;;18.30;99.90;;;;;;6254064;22;20018;-85
2022/07/10 13:22:06;;;;;;;3.08;1.00;;;18.30;99.90;;;;;;6280495;22;20015;-84
2022/07/10 13:24:32;;;;;;;4.95;1.27;;;18.40;99.90;;;;;;6228754;22;20043;-84
2022/07/10 13:26:58;;;;;;;5.20;1.30;;;18.30;99.90;;;;;;6254082;22;20074;-86
2022/07/10 13:29:24;;;;;;;5.68;1.20;;;18.30;99.90;;;;;;6283272;22;20337;-81
2022/07/10 13:31:49;;;;;;;5.47;1.40;;;18.30;99.90;;;;;;6254158;22;20015;-86
2022/07/10 13:34:15;;;;;;;4.60;1.30;;;18.20;99.90;;;;;;6254500;22;20077;-86
2022/07/10 13:36:41;;;;;;;5.03;1.20;;;18.30;99.90;;;;;;6254278;22;20022;-87
2022/07/10 13:39:06;;;;;;;5.70;1.30;;;18.40;99.90;;;;;;6253960;22;20023;-84
2022/07/10 13:41:32;;;;;;;5.30;1.30;;;18.50;99.90;;;;;;6253138;22;20058;-86
2022/07/10 13:43:58;;;;;;;6.13;1.30;;;18.60;99.90;;;;;;6254203;22;20016;-80
2022/07/10 13:46:23;;;;;;;3.92;1.40;;;18.70;99.90;;;;;;6228997;22;20014;-83
2022/07/10 13:48:49;;;;;;;5.55;1.40;;;18.80;99.90;;;;;;6252292;22;20004;-86
2022/07/10 13:51:14;;;;;;;2.65;1.10;;;18.90;99.90;;;;;;6227947;22;20015;-83
2022/07/10 13:53:40;;;;;;;2.80;0.90;;;19.00;99.90;;;;;;6252842;22;20016;-86
2022/07/10 13:56:07;;;;;;;3.97;1.52;;;19.20;99.90;;;;;;6227293;22;20065;-84
2022/07/10 13:58:36;;;;;;;6.13;1.83;;;19.50;99.90;;;;;;6251870;22;20015;-83
2022/07/10 14:01:03;;;;;;;3.88;1.13;;;19.70;99.90;;;;;;6278875;22;20062;-83
2022/07/10 14:03:30;;;;;;;8.40;1.73;;;19.80;99.90;;;;;;6251795;22;20012;-84
2022/07/10 14:05:57;;;;;;;4.72;1.30;;;19.80;99.90;;;;;;6251913;22;20046;-86
2022/07/10 14:08:23;;;;;;;4.07;1.27;;;19.80;99.90;;;;;;6251729;22;20019;-84
2022/07/10 14:10:48;;;;;;;5.82;1.55;;;19.80;99.90;;;;;;6251886;22;20090;-85
2022/07/10 14:13:14;;;;;;;6.32;1.42;;;19.80;99.90;;;;;;6252585;22;20039;-85
2022/07/10 14:15:40;;;;;;;4.28;1.20;;;19.80;99.90;;;;;;6279569;22;20016;-84
2022/07/10 14:18:06;;;;;;;3.88;1.30;;;19.80;99.90;;;;;;6279434;22;20380;-85
2022/07/10 14:21:02;;;;;;;3.33;1.10;;;19.80;99.90;;;;;;6252014;22;20047;-86
2022/07/10 14:23:18;;;;;;;4.07;1.20;;;19.80;99.90;;;;;;6251186;22;20020;-85
2022/07/10 14:25:47;;;;;;;5.13;1.10;;;19.70;99.90;;;;;;6251731;22;20012;-83
2022/07/10 14:28:13;;;;;;;5.03;1.40;;;19.70;99.90;;;;;;6280456;22;20014;-86
2022/07/10 14:30:43;;;;;;;5.90;1.30;;;19.70;99.90;;;;;;6279421;22;20090;-88
2022/07/10 14:33:09;;;;;;;4.30;1.05;;;19.70;99.90;;;;;;6228241;22;20015;-84
2022/07/10 14:35:34;;;;;;;3.70;0.98;;;19.70;99.90;;;;;;6252731;22;20020;-85
2022/07/10 14:38:00;;;;;;;5.10;1.20;;;19.80;99.90;;;;;;6252326;22;20020;-86
2022/07/10 14:40:26;;;;;;;3.75;1.23;;;19.80;99.90;;;;;;6251110;22;20311;-80
2022/07/10 14:42:51;;;;;;;3.95;1.00;;;19.90;99.90;;;;;;6251383;22;20018;-82
2022/07/10 14:45:18;;;;;;;3.63;1.15;;;19.70;99.90;;;;;;6226131;22;20459;-84
2022/07/10 14:47:44;;;;;;;2.80;0.90;;;19.70;99.90;;;;;;6278249;22;20012;-83
2022/07/10 14:50:09;;;;;;;4.97;1.38;;;19.60;99.90;;;;;;6251214;22;20015;-82
2022/07/10 14:52:37;;;;;;;2.65;1.20;;;19.60;99.90;;;;;;6250847;22;20090;-83
2022/07/10 14:55:03;;;;;;;2.55;1.10;;;19.60;99.90;;;;;;6251583;22;20016;-84
2022/07/10 14:57:29;;;;;;;4.38;1.33;;;19.70;99.90;;;;;;6251678;22;20039;-85
2022/07/10 14:59:54;;;;;;;7.18;1.55;;;19.70;99.90;;;;;;6280977;22;20012;-86
2022/07/10 15:02:20;;;;;;;5.03;1.20;;;19.80;99.90;;;;;;6252584;22;20023;-84
2022/07/10 15:04:46;;;;;;;5.53;1.40;;;19.80;99.90;;;;;;6252953;22;20007;-82
2022/07/10 15:07:12;;;;;;;3.22;1.33;;;20.00;99.90;;;;;;6252374;22;20011;-85
2022/07/10 15:09:37;;;;;;;4.05;1.50;;;19.90;99.90;;;;;;6251803;22;20019;-86
2022/07/10 15:12:03;;;;;;;3.33;1.50;;;19.70;99.90;;;;;;6252231;22;20071;-85
2022/07/10 15:14:29;;;;;;;3.97;1.55;;;19.60;99.90;;;;;;6252366;22;20334;-86
2022/07/10 15:16:55;;;;;;;3.97;1.55;;;19.60;99.90;;;;;;6279344;22;20019;-83
2022/07/10 15:19:20;;;;;;;6.07;1.52;;;19.60;99.90;;;;;;6251987;22;20070;-84
2022/07/10 15:21:46;;;;;;;3.80;1.67;;;19.50;99.90;;;;;;6252053;22;20018;-83
2022/07/10 15:24:11;;;;;;;4.82;1.65;;;19.40;99.90;;;;;;6252242;22;20011;-83
2022/07/10 15:26:37;;;;;;;5.13;1.50;;;19.40;99.90;;;;;;6251889;22;20020;-84
2022/07/10 15:29:03;;;;;;;7.07;1.60;;;19.40;99.90;;;;;;6252355;22;20043;-82
2022/07/10 15:31:29;;;;;;;4.97;1.95;;;19.40;99.90;;;;;;6250537;22;20023;-83
2022/07/10 15:33:55;;;;;;;3.63;1.85;;;19.40;99.90;;;;;;6226830;22;20018;-84
2022/07/10 15:36:21;;;;;;;5.60;1.60;;;19.40;99.90;;;;;;6252091;22;20023;-84
2022/07/10 15:38:47;;;;;;;5.65;2.25;;;19.50;99.90;;;;;;6226700;22;20018;-83
2022/07/10 15:41:13;;;;;;;7.32;2.33;;;19.50;99.90;;;;;;6251595;22;20020;-82
2022/07/10 15:43:39;;;;;;;6.05;2.13;;;19.50;99.90;;;;;;6226700;22;20011;-83
2022/07/10 15:46:06;;;;;;;7.40;1.92;;;19.50;99.90;;;;;;6252105;22;20006;-84
2022/07/10 15:48:32;;;;;;;5.88;2.80;;;19.50;99.90;;;;;;6252203;22;20058;-82
2022/07/10 15:50:58;;;;;;;7.55;2.60;;;19.40;99.90;;;;;;6225679;22;20373;-83
2022/07/10 15:53:24;;;;;;;5.65;2.30;;;19.40;99.90;;;;;;6252075;22;20456;-85
2022/07/10 15:55:50;;;;;;;6.80;2.40;;;19.40;99.90;;;;;;6252097;22;20019;-84
2022/07/10 15:58:16;;;;;;;8.27;2.60;;;19.40;99.90;;;;;;6252411;22;20111;-85
2022/07/10 16:00:42;;;;;;;7.13;2.63;;;19.40;99.90;;;;;;6252335;22;20016;-85
2022/07/10 16:03:08;;;;;;;10.43;3.08;;;19.40;99.90;;;;;;6252152;22;20017;-85
2022/07/10 16:05:33;;;;;;;7.85;2.80;;;19.40;99.90;;;;;;6253637;22;20403;-85
2022/07/10 16:07:59;;;;;;;7.45;2.88;;;19.30;99.90;;;;;;6227237;22;20138;-86
2022/07/10 16:10:25;;;;;;;7.85;2.90;;;19.30;99.90;;;;;;6252483;22;20015;-83
2022/07/10 16:12:50;;;;;;;8.40;3.10;;;19.20;99.90;;;;;;6252509;22;20293;-85
2022/07/10 16:15:16;;;;;;;9.27;4.22;;;19.20;99.90;;;;;;6278304;22;20453;-88
2022/07/10 16:17:42;;;;;;;10.77;4.18;;;19.10;99.90;;;;;;6280177;22;20083;-87
2022/07/10 16:20:08;;;;;;;12.23;3.95;;;19.10;99.90;;;;;;6278220;22;20102;-86
2022/07/10 16:22:35;;;;;;;11.85;4.00;;;19.00;99.90;;;;;;6277301;22;20084;-85
2022/07/10 16:27:45;;;;;;;14.35;4.18;;;19.00;99.90;;;;;;6251126;22;20012;-87
2022/07/10 16:30:11;;;;;;;10.23;3.72;;;19.00;99.90;;;;;;6251204;22;20508;-84
2022/07/10 16:32:36;;;;;;;13.73;3.72;;;19.10;99.90;;;;;;6250728;22;20008;-86
2022/07/10 16:35:02;;;;;;;8.95;3.47;;;19.10;99.90;;;;;;6226696;22;20012;-86
2022/07/10 16:37:28;;;;;;;7.72;3.50;;;19.10;99.90;;;;;;6226474;22;20399;-87
2022/07/10 16:39:53;;;;;;;7.25;3.42;;;19.00;99.90;;;;;;6252100;22;20142;-84
2022/07/10 16:42:19;;;;;;;8.55;3.58;;;19.20;99.90;;;;;;6252100;22;20441;-86
2022/07/10 16:44:45;;;;;;;7.88;3.80;;;19.40;99.90;;;;;;6227328;22;20038;-88
2022/07/10 16:47:10;;;;;;;8.65;4.15;;;19.40;99.90;;;;;;6252835;22;20047;-87
2022/07/10 16:49:36;;;;;;;20.58;10.50;;;19.50;99.90;;;;;;6260081;22;20016;-88
2022/07/10 16:52:02;;;;;;;11.23;4.72;;;19.60;99.90;;;;;;6234054;22;20007;-85
2022/07/10 16:54:27;;;;;;;11.30;4.13;;;19.70;99.90;;;;;;6231301;22;20189;-85
2022/07/10 16:56:53;;;;;;;11.88;4.43;;;19.60;99.90;;;;;;6270483;22;20015;-84
2022/07/10 16:59:19;;;;;;;10.70;4.03;;;19.50;99.90;;;;;;6274663;22;20016;-82
2022/07/10 17:01:44;;;;;;;10.85;3.80;;;19.30;99.90;;;;;;6262427;22;20045;-85